NCAR-RAP Real-Time Weather Data

Output produced by METARs form (24 January 2022  23:36 UTC)
found at http://weather.rap.ucar.edu/surface/
 
KALS 242252Z AUTO 07006KT 10SM CLR 06/M12 A2990 RMK AO2 SLP158 T00561122
KALS 242152Z AUTO 33003KT 10SM CLR 07/M12 A2990 RMK AO2 SLP148 T00671122
KALS 242052Z AUTO VRB04KT 10SM CLR 06/M13 A2991 RMK AO2 SLP160 T00561128 56027
KALS 241952Z AUTO 01005KT 10SM CLR 05/M12 A2993 RMK AO2 SLP161 T00501122
KALS 241852Z AUTO 33006KT 10SM CLR 03/M11 A2997 RMK AO2 SLP175 T00331106
KALS 241752Z AUTO 35007KT 10SM CLR 02/M09 A3001 RMK AO2 SLP195 I6000 T00171094 10017 21200 58001
KALS 241652Z AUTO VRB03KT 10SM CLR M03/M09 A3002 RMK AO2 SLP216 T10331094
KALS 241552Z AUTO 17003KT 10SM CLR M09/M12 A3002 RMK AO2 SLP229 T10941122